Time;durP1;ratioP1;P1;durP2;ratioP2;P2;SDS_P1;SDS_P2;PMS_P1;PMS_P2;Temp;Humidity;BMP_temperature;BMP_pressure;BME280_temperature;BME280_humidity;BME280_pressure;Samples;Min_cycle;Max_cycle;Signal;HPM_P1;HPM_P2
2021/03/05 00:01:03;;;;;;;21.35;5.47;;;;;;;2.74;100.00;102378.19;5222241;28;20028;-68
2021/03/05 00:03:34;;;;;;;20.55;4.30;;;;;;;2.72;100.00;102380.06;5221669;28;20017;-68
2021/03/05 00:06:05;;;;;;;19.20;4.07;;;;;;;2.74;100.00;102384.31;5222714;28;20550;-68
2021/03/05 00:08:35;;;;;;;24.35;4.03;;;;;;;2.68;100.00;102384.66;5222118;28;20029;-69
2021/03/05 00:11:06;;;;;;;19.70;5.90;;;;;;;2.67;100.00;102382.94;5222033;28;20029;-71
2021/03/05 00:13:36;;;;;;;19.80;5.10;;;;;;;2.82;100.00;102383.94;5221450;28;20032;-70
2021/03/05 00:16:07;;;;;;;21.63;4.75;;;;;;;2.71;100.00;102392.44;5214398;28;20383;-71
2021/03/05 00:18:37;;;;;;;18.75;4.80;;;;;;;2.67;100.00;102393.53;5219150;28;20096;-68
2021/03/05 00:21:08;;;;;;;21.08;4.45;;;;;;;2.67;100.00;102390.03;5222361;28;20025;-67
2021/03/05 00:23:38;;;;;;;19.88;5.50;;;;;;;2.66;100.00;102391.81;5220803;28;20032;-67
2021/03/05 00:26:09;;;;;;;23.45;5.05;;;;;;;2.66;100.00;102401.53;5221909;28;20025;-68
2021/03/05 00:28:39;;;;;;;15.57;4.68;;;;;;;2.75;100.00;102398.44;5222212;28;20086;-68
2021/03/05 00:31:10;;;;;;;15.57;5.53;;;;;;;2.69;100.00;102407.56;5221138;28;20024;-68
2021/03/05 00:33:40;;;;;;;13.43;4.38;;;;;;;2.64;100.00;102401.63;5219990;28;20031;-68
2021/03/05 00:36:11;;;;;;;23.48;4.63;;;;;;;2.78;100.00;102409.75;5221940;28;20029;-68
2021/03/05 00:38:41;;;;;;;22.50;4.72;;;;;;;2.69;100.00;102409.34;5222250;28;20027;-68
2021/03/05 00:41:12;;;;;;;16.00;4.55;;;;;;;2.73;100.00;102409.13;5222464;28;20028;-68
2021/03/05 00:43:42;;;;;;;25.85;5.70;;;;;;;2.70;100.00;102409.25;5221393;28;20029;-69
2021/03/05 00:46:13;;;;;;;16.75;4.50;;;;;;;2.79;100.00;102415.91;5221569;28;20501;-68
2021/03/05 00:48:43;;;;;;;21.17;5.65;;;;;;;2.66;100.00;102418.31;5231104;23;20120;-82
2021/03/05 00:51:14;;;;;;;19.00;5.63;;;;;;;2.65;100.00;102415.72;5212610;28;20026;-82
2021/03/05 00:53:44;;;;;;;21.65;6.05;;;;;;;2.77;100.00;102417.78;5220670;28;20017;-82
2021/03/05 00:56:15;;;;;;;17.38;5.40;;;;;;;2.84;100.00;102414.72;5228194;28;20021;-81
2021/03/05 00:58:45;;;;;;;25.85;6.53;;;;;;;2.77;100.00;102420.44;5210132;28;20030;-81
2021/03/05 01:01:16;;;;;;;22.30;5.72;;;;;;;2.82;100.00;102421.06;5216769;28;20025;-82
2021/03/05 01:03:46;;;;;;;16.52;5.45;;;;;;;2.79;100.00;102419.41;5239552;28;20025;-82
2021/03/05 01:06:17;;;;;;;22.08;5.85;;;;;;;2.73;100.00;102425.03;5222893;28;20040;-82
2021/03/05 01:08:47;;;;;;;22.08;6.70;;;;;;;2.69;100.00;102423.47;5210982;28;20116;-82
2021/03/05 01:11:18;;;;;;;33.88;5.93;;;;;;;2.77;100.00;102423.94;5213276;28;20179;-82
2021/03/05 01:13:49;;;;;;;20.20;5.03;;;;;;;2.76;100.00;102421.34;5212317;28;20017;-82
2021/03/05 01:16:20;;;;;;;19.40;4.60;;;;;;;2.66;100.00;102423.63;5233984;28;20036;-82
2021/03/05 01:18:50;;;;;;;20.55;4.40;;;;;;;2.62;100.00;102427.34;5196570;28;20028;-81
2021/03/05 01:21:21;;;;;;;15.18;5.35;;;;;;;2.63;100.00;102438.81;5213127;28;20485;-82
2021/03/05 01:23:52;;;;;;;20.13;5.53;;;;;;;2.64;100.00;102430.78;5206199;28;20056;-82
2021/03/05 01:26:22;;;;;;;23.42;6.72;;;;;;;2.63;100.00;102439.66;5220335;28;20029;-81
2021/03/05 01:28:53;;;;;;;18.23;5.40;;;;;;;2.63;100.00;102431.72;5215513;28;20430;-82
2021/03/05 01:31:23;;;;;;;23.17;5.60;;;;;;;2.61;100.00;102428.31;5214119;28;20025;-84
2021/03/05 01:33:54;;;;;;;25.85;5.38;;;;;;;2.57;100.00;102429.38;5191917;28;20044;-84
2021/03/05 01:36:24;;;;;;;35.97;5.28;;;;;;;2.58;100.00;102431.94;5225624;28;20056;-84
2021/03/05 01:38:55;;;;;;;19.38;5.95;;;;;;;2.64;100.00;102427.28;5234828;28;20017;-84
2021/03/05 01:41:25;;;;;;;17.73;5.90;;;;;;;2.68;100.00;102439.44;5229077;28;20163;-84
2021/03/05 01:43:56;;;;;;;25.90;6.80;;;;;;;2.65;100.00;102442.22;5232536;28;20029;-84
2021/03/05 01:46:28;;;;;;;20.75;6.20;;;;;;;2.62;100.00;102439.75;5222910;28;20028;-84
2021/03/05 01:48:59;;;;;;;23.95;6.47;;;;;;;2.60;100.00;102440.66;5221938;28;20036;-84
2021/03/05 01:51:32;;;;;;;24.30;6.57;;;;;;;2.58;100.00;102437.25;5219756;28;20473;-84
2021/03/05 01:54:03;;;;;;;23.08;6.53;;;;;;;2.72;100.00;102441.88;5213835;28;20017;-84
2021/03/05 01:56:37;;;;;;;24.98;6.00;;;;;;;2.69;100.00;102439.34;5209448;28;20084;-84
2021/03/05 01:59:12;;;;;;;26.55;7.10;;;;;;;2.75;100.00;102440.84;5222029;28;20030;-84
2021/03/05 02:01:42;;;;;;;24.75;7.07;;;;;;;2.74;100.00;102439.97;5209949;28;20499;-83
2021/03/05 02:04:15;;;;;;;28.88;6.15;;;;;;;2.72;100.00;102435.72;5239103;28;20022;-82
2021/03/05 02:06:46;;;;;;;24.50;5.55;;;;;;;2.67;100.00;102441.25;5209215;28;20052;-82
2021/03/05 02:09:17;;;;;;;19.75;6.10;;;;;;;2.64;100.00;102438.72;5234322;28;20391;-81
2021/03/05 02:11:48;;;;;;;21.55;6.13;;;;;;;2.59;100.00;102438.09;5197804;28;20104;-82
2021/03/05 02:14:19;;;;;;;18.15;5.93;;;;;;;2.59;100.00;102440.75;5219028;28;20078;-82
2021/03/05 02:17:15;;;;;;;23.73;5.60;;;;;;;2.60;100.00;102448.63;5233547;28;20037;-84
2021/03/05 02:20:03;;;;;;;22.63;6.13;;;;;;;2.62;100.00;102445.91;5228761;28;20021;-84
2021/03/05 02:22:58;;;;;;;21.52;5.60;;;;;;;2.59;100.00;102454.84;5209582;28;20117;-84
2021/03/05 02:26:01;;;;;;;18.27;4.80;;;;;;;2.60;100.00;102458.34;5233593;28;20025;-84
2021/03/05 02:28:59;;;;;;;25.50;5.65;;;;;;;2.49;100.00;102452.72;5215562;28;20033;-84
2021/03/05 02:31:39;;;;;;;23.55;5.22;;;;;;;2.57;100.00;102453.22;5227956;28;20055;-84
2021/03/05 02:34:23;;;;;;;16.30;5.50;;;;;;;2.49;100.00;102456.22;5221512;28;20021;-82
2021/03/05 02:36:57;;;;;;;14.77;5.88;;;;;;;2.50;100.00;102449.16;5220468;28;20396;-81
2021/03/05 02:39:49;;;;;;;17.35;5.00;;;;;;;2.50;100.00;102454.44;5226487;28;20055;-81
2021/03/05 02:42:26;;;;;;;18.92;6.03;;;;;;;2.44;100.00;102452.09;5228575;28;20037;-81
2021/03/05 02:45:00;;;;;;;17.75;5.60;;;;;;;2.50;100.00;102452.66;5224565;28;20028;-81
2021/03/05 02:47:45;;;;;;;24.48;5.50;;;;;;;2.39;100.00;102457.63;5226717;28;20029;-81
2021/03/05 02:50:20;;;;;;;18.85;5.30;;;;;;;2.42;100.00;102451.31;5229399;28;20472;-82
2021/03/05 02:52:54;;;;;;;23.23;5.55;;;;;;;2.42;100.00;102453.97;5229799;28;20029;-81
2021/03/05 02:55:35;;;;;;;25.10;5.00;;;;;;;2.45;100.00;102459.09;5214634;28;20029;-81
2021/03/05 02:58:08;;;;;;;19.80;5.13;;;;;;;2.36;100.00;102464.84;5217917;28;20035;-81
2021/03/05 03:00:40;;;;;;;18.10;4.45;;;;;;;2.39;100.00;102467.34;5212377;28;20061;-82
2021/03/05 03:03:13;;;;;;;23.83;5.28;;;;;;;2.41;100.00;102473.44;5219010;28;20040;-81
2021/03/05 03:05:45;;;;;;;33.75;5.35;;;;;;;2.39;100.00;102465.56;5209332;28;20400;-82
2021/03/05 03:08:17;;;;;;;19.02;4.32;;;;;;;2.40;100.00;102469.06;5220996;28;20090;-81
2021/03/05 03:10:48;;;;;;;18.85;4.68;;;;;;;2.45;100.00;102478.50;5219965;28;20022;-82
2021/03/05 03:13:20;;;;;;;29.52;6.00;;;;;;;2.47;100.00;102475.81;5206850;28;20025;-81
2021/03/05 03:15:50;;;;;;;16.27;3.83;;;;;;;2.47;100.00;102489.03;5211109;28;20397;-81
2021/03/05 03:18:22;;;;;;;21.92;5.15;;;;;;;2.45;100.00;102483.81;5222276;28;20033;-82
2021/03/05 03:20:56;;;;;;;20.35;5.20;;;;;;;2.45;100.00;102486.44;5227719;28;20029;-81
2021/03/05 03:23:27;;;;;;;17.35;4.70;;;;;;;2.44;100.00;102489.19;5213810;28;20024;-81
2021/03/05 03:25:59;;;;;;;25.15;5.22;;;;;;;2.47;100.00;102486.41;5244016;28;20037;-81
2021/03/05 03:28:30;;;;;;;18.75;5.20;;;;;;;2.44;100.00;102483.88;5221298;28;20108;-81
2021/03/05 03:31:04;;;;;;;25.67;5.30;;;;;;;2.38;100.00;102492.13;5205813;28;20132;-81
2021/03/05 03:33:35;;;;;;;18.92;5.22;;;;;;;2.32;100.00;102493.28;5206220;28;20010;-81
2021/03/05 03:36:06;;;;;;;19.60;4.90;;;;;;;2.33;100.00;102495.84;5207512;28;20103;-81
2021/03/05 03:38:37;;;;;;;24.92;5.80;;;;;;;2.34;100.00;102492.25;5225995;28;20039;-81
2021/03/05 03:41:12;;;;;;;22.35;6.72;;;;;;;2.23;100.00;102499.88;5226743;28;20032;-81
2021/03/05 03:43:42;;;;;;;20.40;5.43;;;;;;;2.14;100.00;102507.38;5231567;28;20028;-81
2021/03/05 03:46:13;;;;;;;19.02;6.75;;;;;;;2.04;100.00;102499.00;5205253;28;20036;-81
2021/03/05 03:48:49;;;;;;;21.52;6.00;;;;;;;1.98;100.00;102501.94;5206069;28;20054;-81
2021/03/05 03:51:22;;;;;;;18.42;6.45;;;;;;;1.87;100.00;102504.22;5205896;28;20032;-81
2021/03/05 03:53:56;;;;;;;20.25;6.22;;;;;;;1.76;100.00;102516.16;5206240;28;20417;-81
2021/03/05 03:56:30;;;;;;;29.50;7.57;;;;;;;1.60;100.00;102516.88;5241438;28;20510;-81
2021/03/05 03:59:02;;;;;;;25.52;8.88;;;;;;;1.56;100.00;102516.19;5224862;28;20121;-81
2021/03/05 04:01:33;;;;;;;19.48;6.40;;;;;;;1.50;100.00;102513.78;5216378;28;20484;-81
2021/03/05 04:04:05;;;;;;;25.85;7.18;;;;;;;1.36;100.00;102516.19;5210803;28;20390;-81
2021/03/05 04:06:37;;;;;;;20.42;6.68;;;;;;;1.29;100.00;102521.72;5212782;28;20558;-81
2021/03/05 04:09:09;;;;;;;31.70;7.00;;;;;;;1.19;100.00;102530.09;5210126;28;20039;-81
2021/03/05 04:11:41;;;;;;;27.65;7.05;;;;;;;1.14;100.00;102524.16;5208242;28;20025;-81
2021/03/05 04:14:12;;;;;;;26.80;7.85;;;;;;;1.14;100.00;102532.94;5198958;28;20021;-81
2021/03/05 04:16:42;;;;;;;28.42;7.55;;;;;;;1.17;100.00;102534.63;5209257;28;20047;-81
2021/03/05 04:19:13;;;;;;;28.00;7.65;;;;;;;1.24;100.00;102544.84;5213620;28;20016;-81
2021/03/05 04:21:46;;;;;;;19.58;7.32;;;;;;;1.27;100.00;102550.03;5209129;28;20071;-81
2021/03/05 04:24:17;;;;;;;26.42;8.73;;;;;;;1.37;100.00;102550.50;5203487;28;20017;-81
2021/03/05 04:26:48;;;;;;;20.98;7.80;;;;;;;1.47;100.00;102546.53;5223229;28;20443;-81
2021/03/05 04:29:18;;;;;;;26.17;8.63;;;;;;;1.59;100.00;102550.41;5208439;28;20030;-81
2021/03/05 04:31:49;;;;;;;28.23;8.68;;;;;;;1.68;100.00;102541.22;5235828;28;20044;-81
2021/03/05 04:34:19;;;;;;;19.90;8.30;;;;;;;1.77;100.00;102551.41;5216701;28;20025;-81
2021/03/05 04:36:50;;;;;;;25.90;9.88;;;;;;;1.73;100.00;102555.97;5211516;28;20033;-81
2021/03/05 04:39:20;;;;;;;26.35;9.75;;;;;;;1.71;100.00;102557.84;5226654;28;20021;-81
2021/03/05 04:41:51;;;;;;;28.15;8.95;;;;;;;1.59;100.00;102560.16;5240137;28;20033;-81
2021/03/05 04:44:22;;;;;;;24.40;9.20;;;;;;;1.69;100.00;102562.31;5224969;28;20078;-81
2021/03/05 04:46:52;;;;;;;26.15;9.98;;;;;;;1.61;100.00;102577.69;5213788;28;20033;-81
2021/03/05 04:49:23;;;;;;;29.88;10.18;;;;;;;1.56;100.00;102569.09;5220918;28;20032;-81
2021/03/05 04:51:53;;;;;;;33.13;10.45;;;;;;;1.51;100.00;102577.22;5204442;28;20086;-81
2021/03/05 04:54:24;;;;;;;28.73;10.38;;;;;;;1.48;100.00;102573.84;5203849;28;20457;-81
2021/03/05 04:56:54;;;;;;;24.90;9.95;;;;;;;1.41;100.00;102593.53;5218960;28;20032;-81
2021/03/05 04:59:24;;;;;;;28.63;10.00;;;;;;;1.29;100.00;102582.53;5218636;28;20493;-81
2021/03/05 05:01:55;;;;;;;33.08;11.18;;;;;;;1.23;100.00;102579.28;5204739;28;20528;-81
2021/03/05 05:04:25;;;;;;;24.58;9.80;;;;;;;1.15;100.00;102578.75;5205244;28;20148;-81
2021/03/05 05:06:56;;;;;;;33.20;11.65;;;;;;;1.01;100.00;102589.91;5218449;28;20021;-81
2021/03/05 05:09:26;;;;;;;26.23;10.10;;;;;;;0.99;100.00;102589.94;5220715;28;20026;-81
2021/03/05 05:11:57;;;;;;;24.08;10.60;;;;;;;0.95;100.00;102590.13;5205810;28;20496;-81
2021/03/05 05:14:27;;;;;;;26.02;9.77;;;;;;;0.91;100.00;102594.69;5218542;28;20115;-81
2021/03/05 05:16:58;;;;;;;23.67;9.18;;;;;;;0.87;100.00;102584.31;5214553;28;20021;-81
2021/03/05 05:19:28;;;;;;;21.95;9.07;;;;;;;0.87;100.00;102601.03;5245195;28;20136;-81
2021/03/05 05:21:59;;;;;;;25.90;9.75;;;;;;;0.84;100.00;102616.13;5209770;28;20052;-81
2021/03/05 05:24:29;;;;;;;21.35;9.20;;;;;;;0.81;100.00;102619.75;5207122;28;20095;-81
2021/03/05 05:26:59;;;;;;;23.52;8.98;;;;;;;0.76;100.00;102619.09;5215781;28;20037;-81
2021/03/05 05:29:30;;;;;;;26.50;11.00;;;;;;;0.73;100.00;102620.03;5244289;28;20021;-81
2021/03/05 05:32:00;;;;;;;29.55;9.77;;;;;;;0.70;100.00;102622.81;5234336;28;20021;-81
2021/03/05 05:34:31;;;;;;;20.73;9.05;;;;;;;0.66;100.00;102623.84;5206642;28;20159;-81
2021/03/05 05:37:02;;;;;;;25.67;9.73;;;;;;;0.61;100.00;102625.81;5217290;28;20434;-81
2021/03/05 05:39:33;;;;;;;22.95;9.30;;;;;;;0.56;100.00;102630.41;5214050;28;20157;-81
2021/03/05 05:42:06;;;;;;;26.35;9.82;;;;;;;0.50;100.00;102633.25;5215699;28;20396;-81
2021/03/05 05:44:37;;;;;;;24.67;9.48;;;;;;;0.50;100.00;102633.25;5228285;28;20045;-81
2021/03/05 05:47:11;;;;;;;25.30;8.77;;;;;;;0.50;100.00;102630.63;5228423;28;20040;-80
2021/03/05 05:49:44;;;;;;;22.67;8.90;;;;;;;0.46;100.00;102640.47;5228008;28;20039;-83
2021/03/05 05:52:20;;;;;;;30.20;10.20;;;;;;;0.38;100.00;102639.00;5212760;28;20457;-83
2021/03/05 05:54:54;;;;;;;23.02;9.80;;;;;;;0.32;100.00;102640.09;5222235;28;20029;-83
2021/03/05 05:57:26;;;;;;;30.83;10.50;;;;;;;0.22;100.00;102639.56;5220402;28;20017;-83
2021/03/05 05:59:58;;;;;;;33.13;11.32;;;;;;;0.14;100.00;102648.69;5207328;28;20087;-83
2021/03/05 06:02:29;;;;;;;30.90;9.82;;;;;;;0.04;100.00;102648.16;5207541;28;20029;-83
2021/03/05 06:05:01;;;;;;;25.88;10.10;;;;;;;0.04;100.00;102652.56;5219687;28;20021;-83
2021/03/05 06:07:32;;;;;;;35.63;10.48;;;;;;;0.05;100.00;102641.97;5229610;28;20031;-83
2021/03/05 06:10:03;;;;;;;31.13;10.70;;;;;;;-0.02;100.00;102654.50;5212736;28;20109;-83
2021/03/05 06:12:34;;;;;;;31.70;11.77;;;;;;;-0.01;100.00;102653.59;5229180;28;20454;-83
2021/03/05 06:15:07;;;;;;;31.65;10.82;;;;;;;-0.10;100.00;102656.56;5226267;28;20017;-83
2021/03/05 06:17:42;;;;;;;34.17;11.05;;;;;;;-0.09;100.00;102645.09;5217530;28;20434;-84
2021/03/05 06:20:13;;;;;;;33.80;12.52;;;;;;;-0.09;100.00;102660.06;5240123;28;20024;-83
2021/03/05 06:22:46;;;;;;;30.30;10.65;;;;;;;-0.20;100.00;102659.56;5218919;28;20025;-83
2021/03/05 06:25:34;;;;;;;36.17;11.55;;;;;;;-0.26;100.00;102666.75;5209047;28;20017;-83
2021/03/05 06:28:16;;;;;;;33.83;10.15;;;;;;;-0.27;100.00;102664.19;5210905;28;20040;-83
2021/03/05 06:30:47;;;;;;;42.35;12.80;;;;;;;-0.31;100.00;102681.88;5216900;28;20037;-83
2021/03/05 06:33:23;;;;;;;29.25;11.15;;;;;;;-0.24;100.00;102674.66;5208436;28;20025;-83
2021/03/05 06:35:54;;;;;;;38.95;12.00;;;;;;;-0.23;100.00;102678.16;5209427;28;20120;-83
2021/03/05 06:38:40;;;;;;;34.65;12.25;;;;;;;-0.27;100.00;102685.28;5228958;28;20063;-84
2021/03/05 06:41:20;;;;;;;44.35;12.10;;;;;;;-0.31;100.00;102689.78;5229101;28;20434;-83
2021/03/05 06:43:57;;;;;;;37.50;12.30;;;;;;;-0.31;100.00;102699.50;5244510;28;20020;-83
2021/03/05 06:46:36;;;;;;;39.10;12.75;;;;;;;-0.34;100.00;102707.53;5193685;28;20083;-83
2021/03/05 06:49:10;;;;;;;39.58;12.90;;;;;;;-0.32;100.00;102701.25;5223799;28;20098;-83
2021/03/05 06:51:41;;;;;;;39.47;12.52;;;;;;;-0.27;100.00;102711.66;5228681;28;20033;-83
2021/03/05 06:54:14;;;;;;;43.00;12.18;;;;;;;-0.28;100.00;102716.06;5224698;28;20120;-83
2021/03/05 06:56:49;;;;;;;32.58;11.63;;;;;;;-0.27;100.00;102720.44;5207992;28;20082;-84
2021/03/05 06:59:22;;;;;;;41.55;13.57;;;;;;;-0.23;100.00;102722.97;5236027;28;20022;-83
2021/03/05 07:01:55;;;;;;;38.75;12.98;;;;;;;-0.16;100.00;102733.25;5207923;28;20033;-83
2021/03/05 07:04:27;;;;;;;37.10;12.77;;;;;;;-0.11;100.00;102733.13;5227733;28;20029;-83
2021/03/05 07:07:06;;;;;;;41.15;12.43;;;;;;;-0.12;100.00;102741.94;5226723;28;20213;-83
2021/03/05 07:09:39;;;;;;;35.05;12.07;;;;;;;-0.04;100.00;102739.94;5226481;28;20032;-83
2021/03/05 07:12:11;;;;;;;35.75;12.27;;;;;;;-0.01;100.00;102742.44;5220427;28;20056;-82
2021/03/05 07:14:44;;;;;;;32.95;11.40;;;;;;;0.04;100.00;102750.22;5196031;28;20145;-84
2021/03/05 07:17:16;;;;;;;36.05;12.20;;;;;;;0.09;100.00;102750.91;5206764;28;20036;-83
2021/03/05 07:19:47;;;;;;;32.45;11.13;;;;;;;0.13;100.00;102752.53;5206481;28;20036;-83
2021/03/05 07:22:18;;;;;;;32.10;10.13;;;;;;;0.15;100.00;102746.31;5203557;28;20021;-82
2021/03/05 07:24:50;;;;;;;35.38;10.48;;;;;;;0.19;100.00;102755.81;5199242;28;20017;-82
2021/03/05 07:27:27;;;;;;;35.35;11.45;;;;;;;0.22;100.00;102763.66;5215519;28;20029;-80
2021/03/05 07:30:00;;;;;;;24.08;9.90;;;;;;;0.27;100.00;102768.78;5225246;28;20048;-81
2021/03/05 07:32:47;;;;;;;27.20;9.73;;;;;;;0.32;100.00;102772.13;5211980;28;20021;-81
2021/03/05 07:35:23;;;;;;;23.02;9.05;;;;;;;0.38;100.00;102786.88;5209038;28;20021;-80
2021/03/05 07:37:59;;;;;;;22.83;9.13;;;;;;;0.41;100.00;102790.28;5217324;28;20067;-80
2021/03/05 07:40:31;;;;;;;27.13;8.75;;;;;;;0.46;100.00;102793.63;5205159;28;20037;-80
2021/03/05 07:43:05;;;;;;;23.45;8.95;;;;;;;0.55;100.00;102794.19;5223984;28;20031;-80
2021/03/05 07:45:36;;;;;;;23.45;9.05;;;;;;;0.60;100.00;102805.47;5227405;28;20104;-80
2021/03/05 07:48:10;;;;;;;28.00;8.35;;;;;;;0.63;100.00;102800.94;5213913;28;20120;-80
2021/03/05 07:50:41;;;;;;;28.67;8.77;;;;;;;0.68;100.00;102804.28;5210611;28;20041;-80
2021/03/05 07:53:12;;;;;;;19.40;7.20;;;;;;;0.71;100.00;102806.81;5205057;28;20283;-80
2021/03/05 07:55:43;;;;;;;20.23;7.78;;;;;;;0.76;100.00;102814.59;5218463;28;20082;-80
2021/03/05 07:58:48;;;;;;;23.23;7.05;;;;;;;0.84;100.00;102815.16;5216859;28;20024;-77
2021/03/05 08:01:59;;;;;;;15.95;6.35;;;;;;;0.90;100.00;102820.22;5195309;28;20060;-80
2021/03/05 08:04:55;;;;;;;20.05;6.85;;;;;;;0.97;100.00;102831.44;5205338;28;20450;-80
2021/03/05 08:07:27;;;;;;;18.48;6.32;;;;;;;1.01;100.00;102838.34;5213178;28;20029;-80
2021/03/05 08:09:57;;;;;;;17.17;5.85;;;;;;;1.09;100.00;102845.97;5225081;28;20028;-81
2021/03/05 08:12:36;;;;;;;10.50;4.72;;;;;;;1.16;100.00;102848.38;5227100;28;20116;-80
2021/03/05 08:15:07;;;;;;;12.77;5.30;;;;;;;1.23;100.00;102854.28;5206999;28;20018;-81
2021/03/05 08:17:38;;;;;;;13.23;4.95;;;;;;;1.25;100.00;102860.34;5206919;28;20088;-81
2021/03/05 08:20:29;;;;;;;12.50;4.63;;;;;;;1.28;100.00;102857.59;5219572;28;20080;-80
2021/03/05 08:23:02;;;;;;;11.65;5.15;;;;;;;1.37;100.00;102869.63;5205944;28;20126;-80
2021/03/05 08:25:34;;;;;;;20.25;5.07;;;;;;;1.49;100.00;102855.94;5205273;28;20048;-80
2021/03/05 08:28:26;;;;;;;13.27;4.35;;;;;;;1.50;100.00;102862.94;5217957;28;20374;-81
2021/03/05 08:30:57;;;;;;;7.78;3.00;;;;;;;1.54;100.00;102851.31;5216974;28;20029;-80
2021/03/05 08:33:29;;;;;;;10.20;4.25;;;;;;;1.60;100.00;102866.09;5199725;28;20036;-81
2021/03/05 08:36:00;;;;;;;11.07;4.45;;;;;;;1.66;100.00;102869.38;5218148;28;20024;-80
2021/03/05 08:38:35;;;;;;;12.60;4.00;;;;;;;1.75;100.00;102878.72;5213266;28;20032;-81
2021/03/05 08:41:17;;;;;;;9.23;3.90;;;;;;;1.80;100.00;102869.69;5240590;28;20438;-81
2021/03/05 08:44:06;;;;;;;11.43;4.07;;;;;;;1.88;100.00;102877.34;5212604;28;20021;-80
2021/03/05 08:46:36;;;;;;;11.77;3.28;;;;;;;1.98;100.00;102875.19;5207261;28;20029;-80
2021/03/05 08:49:07;;;;;;;12.48;3.60;;;;;;;2.05;100.00;102888.09;5207317;28;20044;-80
2021/03/05 08:51:41;;;;;;;10.65;3.75;;;;;;;2.19;100.00;102882.25;5218053;28;20033;-80
2021/03/05 08:54:13;;;;;;;7.03;2.95;;;;;;;2.29;100.00;102878.31;5229278;28;20029;-81
2021/03/05 08:56:44;;;;;;;7.57;3.10;;;;;;;2.31;100.00;102887.06;5229369;28;20106;-81
2021/03/05 08:59:15;;;;;;;6.35;2.55;;;;;;;2.40;100.00;102885.81;5229283;28;20033;-81
2021/03/05 09:01:45;;;;;;;11.02;3.63;;;;;;;2.51;100.00;102891.56;5227420;28;20605;-80
2021/03/05 09:04:18;;;;;;;5.97;2.88;;;;;;;2.58;100.00;102889.50;5208037;28;21046;-81
2021/03/05 09:06:56;;;;;;;9.32;3.30;;;;;;;2.61;100.00;102894.69;5220945;28;20041;-81
2021/03/05 09:09:30;;;;;;;9.55;3.60;;;;;;;2.63;100.00;102891.94;5233547;28;20028;-80
2021/03/05 09:12:06;;;;;;;11.18;3.08;;;;;;;2.64;100.00;102886.56;5211735;28;20025;-81
2021/03/05 09:14:37;;;;;;;6.65;3.28;;;;;;;2.68;100.00;102901.44;5220512;28;20065;-84
2021/03/05 09:17:08;;;;;;;8.05;2.85;;;;;;;2.83;100.00;102898.13;5212977;28;20500;-81
2021/03/05 09:19:43;;;;;;;8.35;2.85;;;;;;;2.89;100.00;102904.09;5222515;28;20618;-81
2021/03/05 09:22:14;;;;;;;8.93;2.78;;;;;;;2.94;100.00;102904.75;5207931;28;20079;-81
2021/03/05 09:24:51;;;;;;;12.90;3.20;;;;;;;3.04;100.00;102901.63;5209665;28;20610;-81
2021/03/05 09:27:26;;;;;;;7.28;3.30;;;;;;;3.17;100.00;102903.75;5228266;28;20040;-81
2021/03/05 09:29:58;;;;;;;9.77;3.80;;;;;;;3.21;100.00;102898.22;5214355;28;20366;-81
2021/03/05 09:32:29;;;;;;;7.60;3.42;;;;;;;3.18;100.00;102890.41;5214771;28;20160;-81
2021/03/05 09:35:00;;;;;;;7.65;2.70;;;;;;;3.25;100.00;102897.16;5213670;28;20025;-84
2021/03/05 09:37:30;;;;;;;10.38;3.13;;;;;;;3.35;100.00;102908.22;5226329;28;20028;-84
2021/03/05 09:40:02;;;;;;;7.22;2.65;;;;;;;3.49;100.00;102910.25;5231471;28;20033;-84
2021/03/05 09:42:52;;;;;;;14.38;3.33;;;;;;;3.66;100.00;102905.00;5228208;28;20025;-84
2021/03/05 09:45:41;;;;;;;6.32;2.72;;;;;;;3.76;100.00;102919.56;5243375;28;20391;-84
2021/03/05 09:48:26;;;;;;;11.65;3.22;;;;;;;3.83;100.00;102918.38;5219509;28;20190;-84
2021/03/05 09:50:59;;;;;;;;;;;;;;;4.01;100.00;102916.63;5220301;28;20045;-84
2021/03/05 09:53:31;;;;;;;6.07;2.70;;;;;;;4.00;100.00;102914.06;5218955;28;20003;-84
2021/03/05 09:56:04;;;;;;;7.70;2.60;;;;;;;3.99;100.00;102894.59;5221437;28;20104;-83
2021/03/05 09:58:36;;;;;;;6.28;2.60;;;;;;;3.94;100.00;102917.84;5220091;28;20683;-84
2021/03/05 10:01:13;;;;;;;4.75;2.30;;;;;;;4.01;100.00;102905.13;5220411;28;20033;-84
2021/03/05 10:03:50;;;;;;;5.40;2.60;;;;;;;3.96;100.00;102925.75;5206722;28;20061;-84
2021/03/05 10:06:21;;;;;;;9.52;2.63;;;;;;;3.94;100.00;102928.47;5217046;28;20024;-84
2021/03/05 10:09:07;;;;;;;4.97;2.50;;;;;;;3.98;100.00;102919.44;5238137;28;20035;-84
2021/03/05 10:11:39;;;;;;;7.90;2.83;;;;;;;3.84;100.00;102922.75;5218626;28;20070;-85
2021/03/05 10:14:22;;;;;;;9.35;2.90;;;;;;;3.80;100.00;102915.84;5215428;28;20104;-85
2021/03/05 10:16:52;;;;;;;7.72;2.83;;;;;;;3.70;100.00;102924.31;5217858;28;20020;-84
2021/03/05 10:19:23;;;;;;;8.60;2.88;;;;;;;3.68;100.00;102919.09;5219836;28;20033;-84
2021/03/05 10:21:54;;;;;;;8.40;2.75;;;;;;;3.60;100.00;102923.88;5225740;28;20082;-84
2021/03/05 10:24:27;;;;;;;7.47;2.92;;;;;;;3.73;100.00;102932.16;5215894;28;20091;-83
2021/03/05 10:27:11;;;;;;;6.70;2.38;;;;;;;3.88;100.00;102936.75;5221131;28;20556;-84
2021/03/05 10:29:44;;;;;;;5.10;2.60;;;;;;;4.19;97.83;102925.50;5208298;28;20416;-83
2021/03/05 10:32:16;;;;;;;11.95;3.20;;;;;;;4.34;99.89;102929.22;5207799;28;20029;-84
2021/03/05 10:34:48;;;;;;;9.43;2.92;;;;;;;4.53;100.00;102938.03;5212424;28;20029;-84
2021/03/05 10:37:20;;;;;;;12.32;2.92;;;;;;;4.76;93.02;102928.00;5216058;28;20033;-84
2021/03/05 10:39:51;;;;;;;7.90;2.38;;;;;;;4.97;96.22;102936.69;5225922;28;20024;-84
2021/03/05 10:42:24;;;;;;;10.70;3.22;;;;;;;5.01;94.73;102941.78;5214097;28;20390;-84
2021/03/05 10:44:55;;;;;;;5.75;1.98;;;;;;;5.05;80.51;102940.69;5227689;28;20104;-84
2021/03/05 10:47:26;;;;;;;5.50;1.83;;;;;;;4.91;67.43;102922.75;5226142;28;20104;-84
2021/03/05 10:49:56;;;;;;;5.40;1.85;;;;;;;4.97;63.64;102945.56;5227597;28;20048;-84
2021/03/05 10:52:27;;;;;;;5.40;2.30;;;;;;;5.05;70.74;102943.34;5228938;28;20023;-83
2021/03/05 10:54:57;;;;;;;8.00;2.60;;;;;;;5.17;73.40;102944.50;5226670;28;20031;-84
2021/03/05 10:57:28;;;;;;;7.55;2.05;;;;;;;5.36;79.77;102942.59;5237796;28;20033;-82
2021/03/05 10:59:59;;;;;;;9.80;2.22;;;;;;;5.50;67.28;102944.53;5217895;28;20205;-81
2021/03/05 11:02:31;;;;;;;8.10;2.20;;;;;;;5.48;63.44;102954.41;5209968;28;20051;-81
2021/03/05 11:05:02;;;;;;;5.78;1.80;;;;;;;5.43;57.90;102957.31;5214115;28;20075;-78
2021/03/05 11:07:32;;;;;;;4.70;2.00;;;;;;;5.39;62.71;102953.09;5212286;28;20435;-79
2021/03/05 11:10:03;;;;;;;10.57;2.08;;;;;;;5.45;58.86;102947.44;5211651;28;20025;-81
2021/03/05 11:12:34;;;;;;;3.20;1.98;;;;;;;5.47;57.64;102960.66;5235905;28;20033;-81
2021/03/05 11:15:05;;;;;;;3.90;1.67;;;;;;;5.43;57.92;102951.13;5215363;28;20123;-80
2021/03/05 11:17:35;;;;;;;4.97;1.73;;;;;;;5.41;54.67;102956.50;5213635;28;20036;-81
2021/03/05 11:20:07;;;;;;;4.90;1.95;;;;;;;5.33;53.87;102950.75;5225978;28;20017;-81
2021/03/05 11:22:37;;;;;;;3.28;1.50;;;;;;;5.26;53.65;102937.84;5216001;28;20098;-81
2021/03/05 11:25:08;;;;;;;6.88;1.63;;;;;;;5.34;52.35;102933.84;5218728;28;20025;-82
2021/03/05 11:27:39;;;;;;;4.55;1.48;;;;;;;5.38;53.33;102956.69;5218723;28;20081;-81
2021/03/05 11:30:10;;;;;;;2.45;1.20;;;;;;;5.40;51.40;102953.94;5226971;28;20033;-81
2021/03/05 11:32:40;;;;;;;3.75;1.65;;;;;;;5.39;51.98;102950.44;5213268;28;20036;-80
2021/03/05 11:35:11;;;;;;;5.07;1.58;;;;;;;5.48;54.06;102958.88;5218687;28;20047;-81
2021/03/05 11:37:41;;;;;;;4.70;1.80;;;;;;;5.59;53.31;102953.84;5222395;28;20127;-81
2021/03/05 11:40:13;;;;;;;4.80;1.67;;;;;;;5.86;65.52;102959.44;5242452;28;20029;-82
2021/03/05 11:42:43;;;;;;;4.63;1.85;;;;;;;6.04;59.14;102958.47;5209686;28;20037;-81
2021/03/05 11:45:15;;;;;;;5.38;1.35;;;;;;;6.02;53.81;102955.03;5203367;28;20052;-81